sensor_id;sensor_type;location;lat;lon;timestamp;P1;durP1;ratioP1;P2;durP2;ratioP2
67776;SDS011;54576;52.020;5.536;2023-04-24T00:00:00;1.77;;;1.67;;
67776;SDS011;54576;52.020;5.536;2023-04-24T00:02:26;3.47;;;1.80;;
67776;SDS011;54576;52.020;5.536;2023-04-24T00:04:51;2.15;;;1.85;;
67776;SDS011;54576;52.020;5.536;2023-04-24T00:07:17;3.22;;;1.50;;
67776;SDS011;54576;52.020;5.536;2023-04-24T00:09:44;2.35;;;1.63;;
67776;SDS011;54576;52.020;5.536;2023-04-24T00:12:10;3.58;;;1.52;;
67776;SDS011;54576;52.020;5.536;2023-04-24T00:14:36;3.70;;;1.33;;
67776;SDS011;54576;52.020;5.536;2023-04-24T00:17:02;4.20;;;1.30;;
67776;SDS011;54576;52.020;5.536;2023-04-24T00:19:28;1.75;;;0.90;;
67776;SDS011;54576;52.020;5.536;2023-04-24T00:21:53;1.50;;;1.00;;
67776;SDS011;54576;52.020;5.536;2023-04-24T00:24:19;1.50;;;1.00;;
67776;SDS011;54576;52.020;5.536;2023-04-24T00:26:45;2.22;;;0.90;;
67776;SDS011;54576;52.020;5.536;2023-04-24T00:29:11;2.72;;;0.80;;
67776;SDS011;54576;52.020;5.536;2023-04-24T00:31:36;5.03;;;0.88;;
67776;SDS011;54576;52.020;5.536;2023-04-24T00:34:02;3.78;;;0.90;;
67776;SDS011;54576;52.020;5.536;2023-04-24T00:36:28;2.13;;;0.88;;
67776;SDS011;54576;52.020;5.536;2023-04-24T00:38:55;5.35;;;0.93;;
67776;SDS011;54576;52.020;5.536;2023-04-24T00:41:24;4.25;;;1.23;;
67776;SDS011;54576;52.020;5.536;2023-04-24T00:43:51;3.13;;;1.10;;
67776;SDS011;54576;52.020;5.536;2023-04-24T00:46:17;3.42;;;1.10;;
67776;SDS011;54576;52.020;5.536;2023-04-24T00:48:43;1.40;;;1.05;;
67776;SDS011;54576;52.020;5.536;2023-04-24T00:51:09;1.30;;;1.20;;
67776;SDS011;54576;52.020;5.536;2023-04-24T00:53:34;4.15;;;1.23;;
67776;SDS011;54576;52.020;5.536;2023-04-24T00:56:00;2.60;;;1.30;;
67776;SDS011;54576;52.020;5.536;2023-04-24T00:58:27;0.95;;;0.95;;
67776;SDS011;54576;52.020;5.536;2023-04-24T01:00:54;3.20;;;1.70;;
67776;SDS011;54576;52.020;5.536;2023-04-24T01:03:20;1.00;;;1.00;;
67776;SDS011;54576;52.020;5.536;2023-04-24T01:05:49;1.25;;;1.23;;
67776;SDS011;54576;52.020;5.536;2023-04-24T01:08:15;1.20;;;1.20;;
67776;SDS011;54576;52.020;5.536;2023-04-24T01:10:41;2.42;;;1.00;;
67776;SDS011;54576;52.020;5.536;2023-04-24T01:13:08;2.00;;;1.08;;
67776;SDS011;54576;52.020;5.536;2023-04-24T01:15:34;1.55;;;0.60;;
67776;SDS011;54576;52.020;5.536;2023-04-24T01:18:00;1.65;;;0.60;;
67776;SDS011;54576;52.020;5.536;2023-04-24T01:20:26;0.68;;;0.60;;
67776;SDS011;54576;52.020;5.536;2023-04-24T01:22:52;0.68;;;0.50;;
67776;SDS011;54576;52.020;5.536;2023-04-24T01:25:19;1.55;;;0.50;;
67776;SDS011;54576;52.020;5.536;2023-04-24T01:27:45;1.08;;;0.57;;
67776;SDS011;54576;52.020;5.536;2023-04-24T01:30:11;1.00;;;0.63;;
67776;SDS011;54576;52.020;5.536;2023-04-24T01:32:37;1.50;;;0.68;;
67776;SDS011;54576;52.020;5.536;2023-04-24T01:35:04;0.60;;;0.60;;
67776;SDS011;54576;52.020;5.536;2023-04-24T01:37:30;3.65;;;0.60;;
67776;SDS011;54576;52.020;5.536;2023-04-24T01:39:57;0.82;;;0.75;;
67776;SDS011;54576;52.020;5.536;2023-04-24T01:42:22;0.90;;;0.90;;
67776;SDS011;54576;52.020;5.536;2023-04-24T01:44:48;0.95;;;0.95;;
67776;SDS011;54576;52.020;5.536;2023-04-24T01:47:15;0.75;;;0.75;;
67776;SDS011;54576;52.020;5.536;2023-04-24T01:49:40;0.73;;;0.70;;
67776;SDS011;54576;52.020;5.536;2023-04-24T01:52:06;1.42;;;1.05;;
67776;SDS011;54576;52.020;5.536;2023-04-24T01:54:31;0.73;;;0.70;;
67776;SDS011;54576;52.020;5.536;2023-04-24T01:56:57;0.82;;;0.82;;
67776;SDS011;54576;52.020;5.536;2023-04-24T01:59:23;1.95;;;0.90;;
67776;SDS011;54576;52.020;5.536;2023-04-24T02:01:50;1.88;;;1.20;;
67776;SDS011;54576;52.020;5.536;2023-04-24T02:04:15;1.75;;;1.52;;
67776;SDS011;54576;52.020;5.536;2023-04-24T02:06:41;3.92;;;1.48;;
67776;SDS011;54576;52.020;5.536;2023-04-24T02:09:06;2.05;;;1.85;;
67776;SDS011;54576;52.020;5.536;2023-04-24T02:11:32;2.33;;;2.08;;
67776;SDS011;54576;52.020;5.536;2023-04-24T02:13:58;3.00;;;1.90;;
67776;SDS011;54576;52.020;5.536;2023-04-24T02:16:23;2.30;;;2.17;;
67776;SDS011;54576;52.020;5.536;2023-04-24T02:18:49;2.30;;;2.10;;
67776;SDS011;54576;52.020;5.536;2023-04-24T02:21:15;3.60;;;2.30;;
67776;SDS011;54576;52.020;5.536;2023-04-24T02:23:40;2.78;;;2.58;;
67776;SDS011;54576;52.020;5.536;2023-04-24T02:26:06;7.20;;;2.60;;
67776;SDS011;54576;52.020;5.536;2023-04-24T02:28:32;3.40;;;2.78;;
67776;SDS011;54576;52.020;5.536;2023-04-24T02:30:57;4.20;;;2.53;;
67776;SDS011;54576;52.020;5.536;2023-04-24T02:33:23;2.90;;;2.60;;
67776;SDS011;54576;52.020;5.536;2023-04-24T02:35:49;2.70;;;2.50;;
67776;SDS011;54576;52.020;5.536;2023-04-24T02:38:14;3.13;;;2.83;;
67776;SDS011;54576;52.020;5.536;2023-04-24T02:40:40;5.32;;;3.00;;
67776;SDS011;54576;52.020;5.536;2023-04-24T02:43:05;3.10;;;2.83;;
67776;SDS011;54576;52.020;5.536;2023-04-24T02:45:34;3.25;;;2.95;;
67776;SDS011;54576;52.020;5.536;2023-04-24T02:48:00;6.90;;;3.33;;
67776;SDS011;54576;52.020;5.536;2023-04-24T02:50:25;6.85;;;4.00;;
67776;SDS011;54576;52.020;5.536;2023-04-24T02:52:51;5.43;;;3.50;;
67776;SDS011;54576;52.020;5.536;2023-04-24T02:55:16;6.45;;;4.30;;
67776;SDS011;54576;52.020;5.536;2023-04-24T02:57:42;5.97;;;4.10;;
67776;SDS011;54576;52.020;5.536;2023-04-24T03:00:08;4.68;;;4.25;;
67776;SDS011;54576;52.020;5.536;2023-04-24T03:02:34;4.70;;;4.30;;
67776;SDS011;54576;52.020;5.536;2023-04-24T03:04:59;8.57;;;4.53;;
67776;SDS011;54576;52.020;5.536;2023-04-24T03:07:25;7.68;;;4.20;;
67776;SDS011;54576;52.020;5.536;2023-04-24T03:09:51;6.78;;;4.45;;
67776;SDS011;54576;52.020;5.536;2023-04-24T03:12:16;5.40;;;4.28;;
67776;SDS011;54576;52.020;5.536;2023-04-24T03:14:42;5.43;;;4.85;;
67776;SDS011;54576;52.020;5.536;2023-04-24T03:17:08;6.07;;;4.53;;
67776;SDS011;54576;52.020;5.536;2023-04-24T03:19:34;5.65;;;3.90;;
67776;SDS011;54576;52.020;5.536;2023-04-24T03:22:01;5.32;;;4.25;;
67776;SDS011;54576;52.020;5.536;2023-04-24T03:24:27;6.10;;;4.75;;
67776;SDS011;54576;52.020;5.536;2023-04-24T03:26:53;7.25;;;4.93;;
67776;SDS011;54576;52.020;5.536;2023-04-24T03:29:18;8.63;;;4.80;;
67776;SDS011;54576;52.020;5.536;2023-04-24T03:31:44;7.50;;;5.03;;
67776;SDS011;54576;52.020;5.536;2023-04-24T03:34:10;10.32;;;6.05;;
67776;SDS011;54576;52.020;5.536;2023-04-24T03:36:35;8.65;;;6.25;;
67776;SDS011;54576;52.020;5.536;2023-04-24T03:39:01;9.25;;;7.45;;
67776;SDS011;54576;52.020;5.536;2023-04-24T03:41:29;12.85;;;8.60;;
67776;SDS011;54576;52.020;5.536;2023-04-24T03:43:55;10.95;;;8.02;;
67776;SDS011;54576;52.020;5.536;2023-04-24T03:46:21;15.52;;;9.32;;
67776;SDS011;54576;52.020;5.536;2023-04-24T03:48:46;11.18;;;9.05;;
67776;SDS011;54576;52.020;5.536;2023-04-24T03:51:12;14.93;;;9.55;;
67776;SDS011;54576;52.020;5.536;2023-04-24T03:53:37;19.63;;;10.15;;
67776;SDS011;54576;52.020;5.536;2023-04-24T03:56:03;14.85;;;9.48;;
67776;SDS011;54576;52.020;5.536;2023-04-24T03:58:29;16.20;;;10.65;;
67776;SDS011;54576;52.020;5.536;2023-04-24T04:00:54;14.82;;;10.18;;
67776;SDS011;54576;52.020;5.536;2023-04-24T04:03:23;17.40;;;10.97;;
67776;SDS011;54576;52.020;5.536;2023-04-24T04:05:48;19.08;;;11.43;;
67776;SDS011;54576;52.020;5.536;2023-04-24T04:08:14;20.67;;;10.50;;
67776;SDS011;54576;52.020;5.536;2023-04-24T04:10:40;16.33;;;9.68;;
67776;SDS011;54576;52.020;5.536;2023-04-24T04:13:05;15.30;;;10.10;;
67776;SDS011;54576;52.020;5.536;2023-04-24T04:15:31;23.40;;;12.27;;
67776;SDS011;54576;52.020;5.536;2023-04-24T04:17:57;17.08;;;10.75;;
67776;SDS011;54576;52.020;5.536;2023-04-24T04:20:22;15.25;;;9.90;;
67776;SDS011;54576;52.020;5.536;2023-04-24T04:22:48;17.23;;;9.82;;
67776;SDS011;54576;52.020;5.536;2023-04-24T04:25:14;12.68;;;8.60;;
67776;SDS011;54576;52.020;5.536;2023-04-24T04:27:39;12.85;;;7.40;;
67776;SDS011;54576;52.020;5.536;2023-04-24T04:30:07;15.63;;;7.43;;
67776;SDS011;54576;52.020;5.536;2023-04-24T04:32:34;10.00;;;6.90;;
67776;SDS011;54576;52.020;5.536;2023-04-24T04:35:00;8.15;;;5.65;;
67776;SDS011;54576;52.020;5.536;2023-04-24T04:37:28;6.55;;;5.22;;
67776;SDS011;54576;52.020;5.536;2023-04-24T04:39:54;8.65;;;5.43;;
67776;SDS011;54576;52.020;5.536;2023-04-24T04:42:19;5.82;;;5.18;;
67776;SDS011;54576;52.020;5.536;2023-04-24T04:44:45;5.15;;;4.65;;
67776;SDS011;54576;52.020;5.536;2023-04-24T04:47:11;8.18;;;5.15;;
67776;SDS011;54576;52.020;5.536;2023-04-24T04:49:37;5.93;;;4.80;;
67776;SDS011;54576;52.020;5.536;2023-04-24T04:52:03;5.95;;;4.57;;
67776;SDS011;54576;52.020;5.536;2023-04-24T04:54:29;9.05;;;5.55;;
67776;SDS011;54576;52.020;5.536;2023-04-24T04:56:55;6.38;;;4.78;;
67776;SDS011;54576;52.020;5.536;2023-04-24T04:59:22;7.85;;;4.57;;
67776;SDS011;54576;52.020;5.536;2023-04-24T05:01:47;4.40;;;4.00;;
67776;SDS011;54576;52.020;5.536;2023-04-24T05:04:13;5.35;;;2.92;;
67776;SDS011;54576;52.020;5.536;2023-04-24T05:06:38;3.53;;;2.88;;
67776;SDS011;54576;52.020;5.536;2023-04-24T05:09:04;4.13;;;2.97;;
67776;SDS011;54576;52.020;5.536;2023-04-24T05:11:33;8.33;;;3.70;;
67776;SDS011;54576;52.020;5.536;2023-04-24T05:13:58;4.60;;;3.50;;
67776;SDS011;54576;52.020;5.536;2023-04-24T05:16:24;7.10;;;4.90;;
67776;SDS011;54576;52.020;5.536;2023-04-24T05:18:49;9.80;;;5.47;;
67776;SDS011;54576;52.020;5.536;2023-04-24T05:21:15;5.55;;;4.93;;
67776;SDS011;54576;52.020;5.536;2023-04-24T05:23:40;3.75;;;3.40;;
67776;SDS011;54576;52.020;5.536;2023-04-24T05:26:06;8.07;;;4.03;;
67776;SDS011;54576;52.020;5.536;2023-04-24T05:28:32;4.32;;;3.72;;
67776;SDS011;54576;52.020;5.536;2023-04-24T05:30:58;3.78;;;3.40;;
67776;SDS011;54576;52.020;5.536;2023-04-24T05:33:24;4.80;;;3.40;;
67776;SDS011;54576;52.020;5.536;2023-04-24T05:35:50;4.20;;;3.05;;
67776;SDS011;54576;52.020;5.536;2023-04-24T05:38:16;3.00;;;2.75;;
67776;SDS011;54576;52.020;5.536;2023-04-24T05:40:44;3.90;;;2.80;;
67776;SDS011;54576;52.020;5.536;2023-04-24T05:43:10;3.25;;;2.95;;
67776;SDS011;54576;52.020;5.536;2023-04-24T05:45:35;3.33;;;3.03;;
67776;SDS011;54576;52.020;5.536;2023-04-24T05:48:02;3.75;;;2.92;;
67776;SDS011;54576;52.020;5.536;2023-04-24T05:50:28;3.92;;;2.40;;
67776;SDS011;54576;52.020;5.536;2023-04-24T05:52:54;3.20;;;2.90;;
67776;SDS011;54576;52.020;5.536;2023-04-24T05:55:19;4.30;;;2.30;;
67776;SDS011;54576;52.020;5.536;2023-04-24T05:57:45;3.80;;;2.85;;
67776;SDS011;54576;52.020;5.536;2023-04-24T06:00:11;2.88;;;2.67;;
67776;SDS011;54576;52.020;5.536;2023-04-24T06:02:37;6.47;;;2.60;;
67776;SDS011;54576;52.020;5.536;2023-04-24T06:05:03;2.67;;;2.47;;
67776;SDS011;54576;52.020;5.536;2023-04-24T06:07:29;4.82;;;2.33;;
67776;SDS011;54576;52.020;5.536;2023-04-24T06:09:55;3.58;;;2.25;;
67776;SDS011;54576;52.020;5.536;2023-04-24T06:12:21;2.95;;;2.20;;
67776;SDS011;54576;52.020;5.536;2023-04-24T06:14:47;2.58;;;1.85;;
67776;SDS011;54576;52.020;5.536;2023-04-24T06:17:13;5.07;;;2.30;;
67776;SDS011;54576;52.020;5.536;2023-04-24T06:19:39;2.33;;;2.13;;
67776;SDS011;54576;52.020;5.536;2023-04-24T06:22:07;2.33;;;2.13;;
67776;SDS011;54576;52.020;5.536;2023-04-24T06:24:33;8.35;;;2.70;;
67776;SDS011;54576;52.020;5.536;2023-04-24T06:26:59;4.38;;;2.35;;
67776;SDS011;54576;52.020;5.536;2023-04-24T06:29:26;2.45;;;1.92;;
67776;SDS011;54576;52.020;5.536;2023-04-24T06:31:52;2.75;;;2.47;;
67776;SDS011;54576;52.020;5.536;2023-04-24T06:34:17;2.72;;;2.30;;
67776;SDS011;54576;52.020;5.536;2023-04-24T06:36:43;2.80;;;2.50;;
67776;SDS011;54576;52.020;5.536;2023-04-24T06:39:08;2.17;;;2.08;;
67776;SDS011;54576;52.020;5.536;2023-04-24T06:41:34;1.92;;;1.83;;
67776;SDS011;54576;52.020;5.536;2023-04-24T06:44:00;2.08;;;1.98;;
67776;SDS011;54576;52.020;5.536;2023-04-24T06:46:25;1.50;;;1.40;;
67776;SDS011;54576;52.020;5.536;2023-04-24T06:48:52;1.55;;;1.30;;
67776;SDS011;54576;52.020;5.536;2023-04-24T06:51:24;15.70;;;1.10;;
67776;SDS011;54576;52.020;5.536;2023-04-24T06:53:53;1.77;;;1.17;;
67776;SDS011;54576;52.020;5.536;2023-04-24T06:56:19;3.20;;;1.75;;
67776;SDS011;54576;52.020;5.536;2023-04-24T06:58:48;0.70;;;0.65;;
67776;SDS011;54576;52.020;5.536;2023-04-24T07:01:13;1.02;;;0.90;;
67776;SDS011;54576;52.020;5.536;2023-04-24T07:03:39;1.42;;;1.33;;
67776;SDS011;54576;52.020;5.536;2023-04-24T07:06:05;1.17;;;1.10;;
67776;SDS011;54576;52.020;5.536;2023-04-24T07:08:30;3.08;;;2.00;;
67776;SDS011;54576;52.020;5.536;2023-04-24T07:10:57;2.50;;;2.30;;
67776;SDS011;54576;52.020;5.536;2023-04-24T07:13:23;1.25;;;1.15;;
67776;SDS011;54576;52.020;5.536;2023-04-24T07:15:49;6.30;;;3.47;;
67776;SDS011;54576;52.020;5.536;2023-04-24T07:18:16;5.38;;;3.42;;
67776;SDS011;54576;52.020;5.536;2023-04-24T07:20:41;7.45;;;3.20;;
67776;SDS011;54576;52.020;5.536;2023-04-24T07:23:07;8.20;;;4.43;;
67776;SDS011;54576;52.020;5.536;2023-04-24T07:25:33;6.70;;;3.88;;
67776;SDS011;54576;52.020;5.536;2023-04-24T07:27:59;6.32;;;3.53;;
67776;SDS011;54576;52.020;5.536;2023-04-24T07:30:25;5.95;;;5.20;;
67776;SDS011;54576;52.020;5.536;2023-04-24T07:32:50;5.75;;;4.55;;
67776;SDS011;54576;52.020;5.536;2023-04-24T07:35:16;9.20;;;5.28;;
67776;SDS011;54576;52.020;5.536;2023-04-24T07:37:42;11.65;;;5.88;;
67776;SDS011;54576;52.020;5.536;2023-04-24T07:40:11;9.23;;;4.80;;
67776;SDS011;54576;52.020;5.536;2023-04-24T07:42:37;13.30;;;5.30;;
67776;SDS011;54576;52.020;5.536;2023-04-24T07:45:03;11.35;;;5.40;;
67776;SDS011;54576;52.020;5.536;2023-04-24T07:47:29;13.63;;;6.43;;
67776;SDS011;54576;52.020;5.536;2023-04-24T07:49:55;13.07;;;6.28;;
67776;SDS011;54576;52.020;5.536;2023-04-24T07:52:21;15.50;;;6.35;;
67776;SDS011;54576;52.020;5.536;2023-04-24T07:54:46;14.88;;;6.10;;
67776;SDS011;54576;52.020;5.536;2023-04-24T07:57:12;13.35;;;5.43;;
67776;SDS011;54576;52.020;5.536;2023-04-24T07:59:38;9.10;;;5.68;;
67776;SDS011;54576;52.020;5.536;2023-04-24T08:02:04;25.23;;;7.03;;
67776;SDS011;54576;52.020;5.536;2023-04-24T08:04:31;14.10;;;6.25;;
67776;SDS011;54576;52.020;5.536;2023-04-24T08:06:56;12.02;;;6.65;;
67776;SDS011;54576;52.020;5.536;2023-04-24T08:09:22;17.73;;;8.90;;
67776;SDS011;54576;52.020;5.536;2023-04-24T08:11:48;11.40;;;6.85;;
67776;SDS011;54576;52.020;5.536;2023-04-24T08:14:13;20.15;;;5.22;;
67776;SDS011;54576;52.020;5.536;2023-04-24T08:16:39;15.30;;;5.53;;
67776;SDS011;54576;52.020;5.536;2023-04-24T08:19:05;18.45;;;5.65;;
67776;SDS011;54576;52.020;5.536;2023-04-24T08:21:31;15.20;;;6.40;;
67776;SDS011;54576;52.020;5.536;2023-04-24T08:23:57;6.88;;;3.95;;
67776;SDS011;54576;52.020;5.536;2023-04-24T08:26:23;14.77;;;5.72;;
67776;SDS011;54576;52.020;5.536;2023-04-24T08:28:48;9.68;;;4.65;;
67776;SDS011;54576;52.020;5.536;2023-04-24T08:31:14;9.45;;;3.60;;
67776;SDS011;54576;52.020;5.536;2023-04-24T08:33:40;17.40;;;4.38;;
67776;SDS011;54576;52.020;5.536;2023-04-24T08:36:06;7.63;;;3.05;;
67776;SDS011;54576;52.020;5.536;2023-04-24T08:38:33;13.20;;;2.85;;
67776;SDS011;54576;52.020;5.536;2023-04-24T08:41:01;9.38;;;3.20;;
67776;SDS011;54576;52.020;5.536;2023-04-24T08:43:27;19.98;;;3.92;;
67776;SDS011;54576;52.020;5.536;2023-04-24T08:45:54;21.23;;;4.35;;
67776;SDS011;54576;52.020;5.536;2023-04-24T08:48:22;14.00;;;3.60;;
67776;SDS011;54576;52.020;5.536;2023-04-24T08:50:48;21.50;;;3.83;;
67776;SDS011;54576;52.020;5.536;2023-04-24T08:53:15;27.00;;;4.00;;
67776;SDS011;54576;52.020;5.536;2023-04-24T08:55:41;17.48;;;3.70;;
67776;SDS011;54576;52.020;5.536;2023-04-24T08:58:11;18.52;;;2.63;;
67776;SDS011;54576;52.020;5.536;2023-04-24T09:00:37;13.52;;;3.58;;
67776;SDS011;54576;52.020;5.536;2023-04-24T09:03:04;10.85;;;2.78;;
67776;SDS011;54576;52.020;5.536;2023-04-24T09:05:31;18.38;;;3.53;;
67776;SDS011;54576;52.020;5.536;2023-04-24T09:07:57;19.52;;;2.97;;
67776;SDS011;54576;52.020;5.536;2023-04-24T09:10:26;8.48;;;2.70;;
67776;SDS011;54576;52.020;5.536;2023-04-24T09:12:55;14.13;;;3.03;;
67776;SDS011;54576;52.020;5.536;2023-04-24T09:15:23;26.90;;;3.03;;
67776;SDS011;54576;52.020;5.536;2023-04-24T09:17:49;8.90;;;2.88;;
67776;SDS011;54576;52.020;5.536;2023-04-24T09:20:14;12.98;;;3.08;;
67776;SDS011;54576;52.020;5.536;2023-04-24T09:22:41;20.85;;;2.22;;
67776;SDS011;54576;52.020;5.536;2023-04-24T09:25:08;13.15;;;2.30;;
67776;SDS011;54576;52.020;5.536;2023-04-24T09:27:34;6.22;;;1.67;;
67776;SDS011;54576;52.020;5.536;2023-04-24T09:30:00;14.35;;;2.42;;
67776;SDS011;54576;52.020;5.536;2023-04-24T09:32:27;18.10;;;2.75;;
67776;SDS011;54576;52.020;5.536;2023-04-24T09:37:45;25.73;;;3.60;;
67776;SDS011;54576;52.020;5.536;2023-04-24T09:40:15;12.30;;;1.90;;
67776;SDS011;54576;52.020;5.536;2023-04-24T09:45:21;11.75;;;3.50;;
67776;SDS011;54576;52.020;5.536;2023-04-24T09:47:55;15.70;;;3.20;;
67776;SDS011;54576;52.020;5.536;2023-04-24T09:50:20;21.27;;;2.55;;
67776;SDS011;54576;52.020;5.536;2023-04-24T09:52:47;17.20;;;2.80;;
67776;SDS011;54576;52.020;5.536;2023-04-24T09:55:22;11.35;;;2.40;;
67776;SDS011;54576;52.020;5.536;2023-04-24T09:57:49;15.35;;;3.15;;
67776;SDS011;54576;52.020;5.536;2023-04-24T10:00:21;20.05;;;2.95;;
67776;SDS011;54576;52.020;5.536;2023-04-24T10:02:49;12.57;;;2.38;;
67776;SDS011;54576;52.020;5.536;2023-04-24T10:05:16;13.70;;;2.40;;
67776;SDS011;54576;52.020;5.536;2023-04-24T10:07:43;14.85;;;2.40;;
67776;SDS011;54576;52.020;5.536;2023-04-24T10:10:08;11.95;;;2.05;;
67776;SDS011;54576;52.020;5.536;2023-04-24T10:12:34;8.40;;;2.30;;
67776;SDS011;54576;52.020;5.536;2023-04-24T10:15:00;5.22;;;1.55;;
67776;SDS011;54576;52.020;5.536;2023-04-24T10:17:27;14.13;;;1.98;;
67776;SDS011;54576;52.020;5.536;2023-04-24T10:19:54;8.65;;;2.10;;
67776;SDS011;54576;52.020;5.536;2023-04-24T10:22:21;11.75;;;2.40;;
67776;SDS011;54576;52.020;5.536;2023-04-24T10:24:47;11.63;;;2.40;;
67776;SDS011;54576;52.020;5.536;2023-04-24T10:27:15;10.45;;;1.85;;
67776;SDS011;54576;52.020;5.536;2023-04-24T10:29:41;10.13;;;2.17;;
67776;SDS011;54576;52.020;5.536;2023-04-24T10:32:09;13.65;;;2.28;;
67776;SDS011;54576;52.020;5.536;2023-04-24T10:34:36;12.13;;;2.35;;
67776;SDS011;54576;52.020;5.536;2023-04-24T10:37:01;10.45;;;2.00;;
67776;SDS011;54576;52.020;5.536;2023-04-24T10:39:28;13.93;;;1.63;;
67776;SDS011;54576;52.020;5.536;2023-04-24T10:41:55;11.52;;;1.73;;
67776;SDS011;54576;52.020;5.536;2023-04-24T10:44:22;11.77;;;1.98;;
67776;SDS011;54576;52.020;5.536;2023-04-24T10:46:52;8.95;;;1.60;;
67776;SDS011;54576;52.020;5.536;2023-04-24T10:49:27;6.78;;;1.33;;
67776;SDS011;54576;52.020;5.536;2023-04-24T10:51:53;4.93;;;1.40;;
67776;SDS011;54576;52.020;5.536;2023-04-24T10:54:25;4.40;;;1.30;;
67776;SDS011;54576;52.020;5.536;2023-04-24T10:56:52;6.25;;;1.33;;
67776;SDS011;54576;52.020;5.536;2023-04-24T10:59:26;3.97;;;1.38;;
67776;SDS011;54576;52.020;5.536;2023-04-24T11:01:53;5.03;;;1.65;;
67776;SDS011;54576;52.020;5.536;2023-04-24T11:04:28;7.40;;;1.58;;
67776;SDS011;54576;52.020;5.536;2023-04-24T11:06:56;8.10;;;1.40;;
67776;SDS011;54576;52.020;5.536;2023-04-24T11:09:22;4.55;;;1.30;;
67776;SDS011;54576;52.020;5.536;2023-04-24T11:22:36;2.58;;;0.80;;
67776;SDS011;54576;52.020;5.536;2023-04-24T11:25:07;5.72;;;0.73;;
67776;SDS011;54576;52.020;5.536;2023-04-24T11:27:43;5.80;;;0.80;;
67776;SDS011;54576;52.020;5.536;2023-04-24T11:30:11;6.72;;;0.90;;
67776;SDS011;54576;52.020;5.536;2023-04-24T11:32:40;3.22;;;0.73;;
67776;SDS011;54576;52.020;5.536;2023-04-24T11:35:15;5.32;;;1.00;;
67776;SDS011;54576;52.020;5.536;2023-04-24T11:37:51;5.93;;;0.90;;
67776;SDS011;54576;52.020;5.536;2023-04-24T11:40:19;4.25;;;0.98;;
67776;SDS011;54576;52.020;5.536;2023-04-24T11:42:47;14.73;;;1.42;;
67776;SDS011;54576;52.020;5.536;2023-04-24T11:45:15;5.15;;;1.10;;
67776;SDS011;54576;52.020;5.536;2023-04-24T11:47:43;1.13;;;0.40;;
67776;SDS011;54576;52.020;5.536;2023-04-24T11:50:10;5.65;;;1.10;;
67776;SDS011;54576;52.020;5.536;2023-04-24T11:52:38;7.65;;;1.23;;
67776;SDS011;54576;52.020;5.536;2023-04-24T11:55:22;6.80;;;1.10;;
67776;SDS011;54576;52.020;5.536;2023-04-24T11:57:51;6.03;;;1.27;;
67776;SDS011;54576;52.020;5.536;2023-04-24T12:02:48;3.92;;;1.15;;
67776;SDS011;54576;52.020;5.536;2023-04-24T12:05:21;4.47;;;1.45;;
67776;SDS011;54576;52.020;5.536;2023-04-24T12:07:51;4.68;;;2.47;;
67776;SDS011;54576;52.020;5.536;2023-04-24T12:10:20;7.95;;;3.70;;
67776;SDS011;54576;52.020;5.536;2023-04-24T12:12:50;7.78;;;1.35;;
67776;SDS011;54576;52.020;5.536;2023-04-24T12:15:17;4.35;;;0.88;;
67776;SDS011;54576;52.020;5.536;2023-04-24T12:17:44;7.70;;;3.58;;
67776;SDS011;54576;52.020;5.536;2023-04-24T12:20:10;5.20;;;1.10;;
67776;SDS011;54576;52.020;5.536;2023-04-24T12:22:47;3.08;;;0.77;;
67776;SDS011;54576;52.020;5.536;2023-04-24T12:25:19;2.13;;;0.85;;
67776;SDS011;54576;52.020;5.536;2023-04-24T12:30:29;3.92;;;1.20;;
67776;SDS011;54576;52.020;5.536;2023-04-24T12:32:57;5.25;;;1.50;;
67776;SDS011;54576;52.020;5.536;2023-04-24T12:35:25;2.90;;;1.20;;
67776;SDS011;54576;52.020;5.536;2023-04-24T12:37:52;3.35;;;0.77;;
67776;SDS011;54576;52.020;5.536;2023-04-24T12:40:18;7.07;;;1.33;;
67776;SDS011;54576;52.020;5.536;2023-04-24T12:42:45;4.82;;;1.23;;
67776;SDS011;54576;52.020;5.536;2023-04-24T12:45:12;5.40;;;0.98;;
67776;SDS011;54576;52.020;5.536;2023-04-24T12:47:39;4.63;;;1.30;;
67776;SDS011;54576;52.020;5.536;2023-04-24T12:50:07;8.38;;;1.35;;
67776;SDS011;54576;52.020;5.536;2023-04-24T12:52:34;6.15;;;1.30;;
67776;SDS011;54576;52.020;5.536;2023-04-24T12:55:00;4.00;;;1.27;;
67776;SDS011;54576;52.020;5.536;2023-04-24T12:57:27;8.88;;;1.60;;
67776;SDS011;54576;52.020;5.536;2023-04-24T12:59:54;6.57;;;1.30;;
67776;SDS011;54576;52.020;5.536;2023-04-24T13:02:21;7.55;;;1.30;;
67776;SDS011;54576;52.020;5.536;2023-04-24T13:04:48;9.05;;;2.22;;
67776;SDS011;54576;52.020;5.536;2023-04-24T13:07:14;8.13;;;1.52;;
67776;SDS011;54576;52.020;5.536;2023-04-24T13:09:41;8.27;;;1.67;;
67776;SDS011;54576;52.020;5.536;2023-04-24T13:12:07;5.45;;;1.40;;
67776;SDS011;54576;52.020;5.536;2023-04-24T13:14:33;11.85;;;1.33;;
67776;SDS011;54576;52.020;5.536;2023-04-24T13:16:59;11.70;;;1.80;;
67776;SDS011;54576;52.020;5.536;2023-04-24T13:19:26;7.28;;;1.50;;
67776;SDS011;54576;52.020;5.536;2023-04-24T13:21:52;10.02;;;1.88;;
67776;SDS011;54576;52.020;5.536;2023-04-24T13:24:22;6.55;;;1.27;;
67776;SDS011;54576;52.020;5.536;2023-04-24T13:26:52;11.48;;;2.30;;
67776;SDS011;54576;52.020;5.536;2023-04-24T13:29:17;11.98;;;2.42;;
67776;SDS011;54576;52.020;5.536;2023-04-24T13:31:43;9.15;;;2.60;;
67776;SDS011;54576;52.020;5.536;2023-04-24T13:34:09;12.30;;;2.60;;
67776;SDS011;54576;52.020;5.536;2023-04-24T13:36:35;9.80;;;1.20;;
67776;SDS011;54576;52.020;5.536;2023-04-24T13:39:01;8.52;;;1.38;;
67776;SDS011;54576;52.020;5.536;2023-04-24T13:41:29;4.45;;;1.48;;
67776;SDS011;54576;52.020;5.536;2023-04-24T13:43:55;7.78;;;1.42;;
67776;SDS011;54576;52.020;5.536;2023-04-24T13:46:20;8.60;;;1.92;;
67776;SDS011;54576;52.020;5.536;2023-04-24T13:48:46;7.60;;;1.85;;
67776;SDS011;54576;52.020;5.536;2023-04-24T13:51:12;12.43;;;2.25;;
67776;SDS011;54576;52.020;5.536;2023-04-24T13:53:38;17.35;;;3.13;;
67776;SDS011;54576;52.020;5.536;2023-04-24T13:56:03;10.40;;;2.60;;
67776;SDS011;54576;52.020;5.536;2023-04-24T13:58:30;14.63;;;3.05;;
67776;SDS011;54576;52.020;5.536;2023-04-24T14:00:56;8.02;;;2.00;;
67776;SDS011;54576;52.020;5.536;2023-04-24T14:03:21;6.88;;;2.10;;
67776;SDS011;54576;52.020;5.536;2023-04-24T14:05:47;13.18;;;2.42;;
67776;SDS011;54576;52.020;5.536;2023-04-24T14:08:13;8.32;;;1.83;;
67776;SDS011;54576;52.020;5.536;2023-04-24T14:10:39;11.50;;;2.42;;
67776;SDS011;54576;52.020;5.536;2023-04-24T14:13:04;11.98;;;2.05;;
67776;SDS011;54576;52.020;5.536;2023-04-24T14:15:31;13.07;;;2.67;;
67776;SDS011;54576;52.020;5.536;2023-04-24T14:17:56;10.73;;;2.47;;
67776;SDS011;54576;52.020;5.536;2023-04-24T14:20:22;7.55;;;1.90;;
67776;SDS011;54576;52.020;5.536;2023-04-24T14:22:48;16.58;;;2.63;;
67776;SDS011;54576;52.020;5.536;2023-04-24T14:25:14;7.88;;;1.90;;
67776;SDS011;54576;52.020;5.536;2023-04-24T14:27:40;6.97;;;1.85;;
67776;SDS011;54576;52.020;5.536;2023-04-24T14:30:06;7.57;;;1.95;;
67776;SDS011;54576;52.020;5.536;2023-04-24T14:32:32;12.02;;;2.08;;
67776;SDS011;54576;52.020;5.536;2023-04-24T14:34:58;10.27;;;2.40;;
67776;SDS011;54576;52.020;5.536;2023-04-24T14:37:23;14.68;;;2.90;;
67776;SDS011;54576;52.020;5.536;2023-04-24T14:39:49;12.98;;;2.42;;
67776;SDS011;54576;52.020;5.536;2023-04-24T14:42:14;5.43;;;1.80;;
67776;SDS011;54576;52.020;5.536;2023-04-24T14:44:41;6.85;;;1.80;;
67776;SDS011;54576;52.020;5.536;2023-04-24T14:47:07;12.68;;;2.33;;
67776;SDS011;54576;52.020;5.536;2023-04-24T14:49:33;10.20;;;1.65;;
67776;SDS011;54576;52.020;5.536;2023-04-24T14:51:58;10.18;;;2.05;;
67776;SDS011;54576;52.020;5.536;2023-04-24T14:54:24;9.27;;;2.25;;
67776;SDS011;54576;52.020;5.536;2023-04-24T14:56:50;16.65;;;3.35;;
67776;SDS011;54576;52.020;5.536;2023-04-24T14:59:15;12.63;;;2.30;;